createdAt,value
2022-08-12T00:03:59.346Z,8.67183
2022-08-12T00:09:00.881Z,7.568994
2022-08-12T00:14:02.617Z,8.711548
2022-08-12T00:19:04.057Z,8.820552
2022-08-12T00:24:05.785Z,8.308504
2022-08-12T00:29:07.678Z,7.854848
2022-08-12T00:34:09.196Z,8.2523
2022-08-12T00:39:12.015Z,8.115654
2022-08-12T00:44:13.682Z,8.365838
2022-08-12T00:49:15.241Z,8.014726
2022-08-12T00:54:16.828Z,7.42236
2022-08-12T00:59:18.974Z,8.41234
2022-08-12T01:04:20.469Z,8.194928
2022-08-12T01:09:21.893Z,8.283918
2022-08-12T01:14:23.578Z,8.2239
2022-08-12T01:19:25.258Z,7.765982
2022-08-12T01:24:30.704Z,7.936606
2022-08-12T01:29:33.562Z,8.217726
2022-08-12T01:34:36.114Z,8.187424
2022-08-12T01:39:38.456Z,8.470594
2022-08-12T01:45:43.122Z,8.406166
2022-08-12T01:50:45.153Z,7.874376
2022-08-12T01:55:47.497Z,8.31597
2022-08-12T02:00:55.429Z,8.172702
2022-08-12T02:05:57.766Z,7.484266
2022-08-12T02:10:59.237Z,7.10812
2022-08-12T02:16:01.029Z,7.787722
2022-08-12T02:21:02.432Z,7.872736
2022-08-12T02:26:03.972Z,7.268756
2022-08-12T02:31:05.642Z,7.885694
2022-08-12T02:36:07.083Z,6.367008
2022-08-12T02:41:08.545Z,6.285064
2022-08-12T02:46:14.055Z,6.894946
2022-08-12T02:51:16.423Z,7.129736
2022-08-12T02:56:23.022Z,6.672838
2022-08-12T03:01:25.077Z,7.05809
2022-08-12T03:06:26.829Z,7.310672
2022-08-12T03:11:28.525Z,7.167542
2022-08-12T03:16:33.356Z,7.009104
2022-08-12T03:21:58.011Z,6.64327
2022-08-12T03:27:11.232Z,6.555896
2022-08-12T03:32:35.743Z,6.53972
2022-08-12T03:37:38.236Z,6.916586
2022-08-12T03:42:39.858Z,5.911588
2022-08-12T03:47:41.541Z,6.138702
2022-08-12T03:52:43.050Z,5.698738
2022-08-12T03:57:46.081Z,6.473652
2022-08-12T04:02:50.607Z,6.616348
2022-08-12T04:07:58.313Z,5.958214
2022-08-12T04:13:00.119Z,6.158716
2022-08-12T04:18:06.697Z,6.606646
2022-08-12T04:23:09.509Z,6.411584
2022-08-12T04:28:13.156Z,6.220064
2022-08-12T04:33:15.941Z,6.25183
2022-08-12T04:38:17.355Z,5.976464
2022-08-12T04:43:55.318Z,6.362884
2022-08-12T04:49:03.283Z,6.10665
2022-08-12T04:54:04.859Z,6.243296
2022-08-12T04:59:06.440Z,5.962338
2022-08-12T05:04:08.335Z,6.542652
2022-08-12T05:09:13.395Z,6.248488
2022-08-12T05:14:15.211Z,6.32216
2022-08-12T05:19:18.634Z,6.929234
2022-08-12T05:24:24.211Z,7.296846
2022-08-12T05:30:08.315Z,7.225062
2022-08-12T05:35:11.246Z,7.325246
2022-08-12T05:40:12.989Z,7.887186
2022-08-12T05:45:14.473Z,8.457636
2022-08-12T05:50:15.929Z,8.311002
2022-08-12T05:55:17.456Z,8.82264
2022-08-12T06:00:19.354Z,9.655402
2022-08-12T06:05:21.038Z,8.898982
2022-08-12T06:10:32.086Z,10.016716
2022-08-12T06:15:34.699Z,10.648852
2022-08-12T06:20:36.178Z,11.561512
2022-08-12T06:25:38.498Z,12.054752
2022-08-12T06:30:40.036Z,12.430558
2022-08-12T06:35:47.976Z,12.509274
2022-08-12T06:40:51.202Z,13.027782
2022-08-12T06:45:52.637Z,13.87619
2022-08-12T06:50:54.151Z,13.33087
2022-08-12T06:55:58.035Z,14.336944
2022-08-12T07:01:00.330Z,14.577478
2022-08-12T07:06:02.581Z,14.352128
2022-08-12T07:11:04.113Z,15.120666
2022-08-12T07:16:05.586Z,15.648074
2022-08-12T07:21:07.158Z,16.34734
2022-08-12T07:26:08.626Z,16.805814
2022-08-12T07:31:13.076Z,16.741902
2022-08-12T07:36:19.696Z,17.76928
2022-08-12T07:41:21.262Z,18.071094
2022-08-12T07:46:22.820Z,18.303866
2022-08-12T07:51:24.769Z,18.868374
2022-08-12T07:56:27.410Z,19.69434
2022-08-12T08:01:28.987Z,19.310348
2022-08-12T08:06:31.125Z,19.11667
2022-08-12T08:11:32.664Z,19.10519
2022-08-12T08:16:34.095Z,20.064206
2022-08-12T08:21:35.556Z,19.78835
2022-08-12T08:26:37.242Z,20.56225
2022-08-12T08:31:39.832Z,20.205248
2022-08-12T08:36:43.836Z,20.671458
2022-08-12T08:42:14.275Z,21.503056
2022-08-12T08:47:19.844Z,21.141576
2022-08-12T08:52:45.626Z,21.127016
2022-08-12T08:57:47.533Z,21.491074
2022-08-12T09:02:58.892Z,22.01026
2022-08-12T09:08:14.122Z,21.539382
2022-08-12T09:13:23.291Z,21.981886
2022-08-12T09:18:30.830Z,22.637704
2022-08-12T09:23:57.004Z,22.829958
2022-08-12T09:29:00.405Z,22.510598
2022-08-12T09:34:27.766Z,22.845604
2022-08-12T09:40:01.370Z,22.286374
2022-08-12T09:45:19.192Z,24.3383
2022-08-12T09:50:25.204Z,23.94679
2022-08-12T09:56:03.726Z,24.087982
2022-08-12T10:02:43.109Z,23.69962
2022-08-12T10:07:50.164Z,23.653768
2022-08-12T10:13:07.166Z,24.398766
2022-08-12T10:18:13.480Z,23.842616
2022-08-12T10:23:14.956Z,24.502438
2022-08-12T10:28:24.837Z,24.954916
2022-08-12T10:33:31.745Z,24.400096
2022-08-12T10:38:41.414Z,24.38175
2022-08-12T10:43:55.898Z,23.90908
2022-08-12T10:49:06.287Z,24.842356
2022-08-12T10:55:04.768Z,24.513674
2022-08-12T11:00:34.255Z,25.316954
2022-08-12T11:07:06.727Z,25.008272
2022-08-12T11:13:45.827Z,24.610194
2022-08-12T11:18:55.424Z,24.51902
2022-08-12T11:23:57.741Z,24.833048
2022-08-12T11:29:05.893Z,24.545454
2022-08-12T11:34:52.520Z,24.272732
2022-08-12T11:45:10.334Z,24.77326
2022-08-12T11:50:19.613Z,25.266284
2022-08-12T11:55:23.160Z,25.423176
2022-08-12T12:06:00.607Z,25.059918
2022-08-12T12:11:02.449Z,24.727354
2022-08-12T12:16:11.023Z,25.005666
2022-08-12T12:21:12.714Z,24.408916
2022-08-12T12:26:34.866Z,24.560706
2022-08-12T12:32:11.360Z,25.058588
2022-08-12T12:37:16.249Z,25.81911
2022-08-12T12:42:43.643Z,25.417436
2022-08-12T12:47:55.018Z,25.085076
2022-08-12T12:52:57.099Z,24.52476
2022-08-12T12:58:00.699Z,24.72863
2022-08-12T13:03:02.701Z,24.788702
2022-08-12T13:08:04.460Z,24.4325
2022-08-12T13:14:10.559Z,24.369836
2022-08-12T13:19:15.278Z,24.629558
2022-08-12T13:24:16.953Z,24.96413
2022-08-12T13:29:20.778Z,24.796844
2022-08-12T13:34:33.479Z,24.740842
2022-08-12T13:39:37.604Z,24.157716
2022-08-12T13:44:39.128Z,24.866144
2022-08-12T13:49:54.595Z,24.497594
2022-08-12T13:54:57.369Z,23.958894
2022-08-12T14:00:00.873Z,24.17803
2022-08-12T14:05:03.434Z,23.460822
2022-08-12T14:10:33.159Z,24.21137
2022-08-12T14:15:37.244Z,23.703338
2022-08-12T14:20:39.471Z,24.11029
2022-08-12T14:25:41.487Z,23.844828
2022-08-12T14:30:43.085Z,23.352048
2022-08-12T14:36:01.402Z,22.975302
2022-08-12T14:41:05.110Z,23.522184
2022-08-12T14:46:09.153Z,22.75922
2022-08-12T14:52:44.146Z,23.175698
2022-08-12T14:58:31.978Z,22.747998
2022-08-12T15:03:52.724Z,22.59112
2022-08-12T15:08:59.554Z,21.696002
2022-08-12T15:14:06.019Z,21.849108
2022-08-12T15:20:11.929Z,21.983528
2022-08-12T15:25:40.027Z,21.687616
2022-08-12T15:30:49.873Z,21.44928
2022-08-12T15:35:53.877Z,21.297884
2022-08-12T15:40:55.668Z,20.686832
2022-08-12T15:46:00.785Z,20.478064
2022-08-12T15:51:02.967Z,20.281224
2022-08-12T15:56:04.893Z,20.026998
2022-08-12T16:01:07.190Z,19.996344
2022-08-12T16:06:11.458Z,19.951144
2022-08-12T16:11:15.448Z,19.30454
2022-08-12T16:16:23.667Z,19.31161
2022-08-12T16:21:52.456Z,19.18582
2022-08-12T16:26:59.584Z,19.000446
2022-08-12T16:32:01.738Z,18.85745
2022-08-12T16:37:03.318Z,18.717276
2022-08-12T16:42:04.910Z,18.836702
2022-08-12T16:47:07.203Z,18.56755
2022-08-12T16:52:08.774Z,18.285262
2022-08-12T16:57:14.545Z,18.390996
2022-08-12T17:02:33.418Z,18.197426
2022-08-12T17:07:36.567Z,17.958032
2022-08-12T17:12:39.087Z,17.794546
2022-08-12T17:17:41.867Z,17.941518
2022-08-12T17:22:43.583Z,17.578464
2022-08-12T17:27:45.093Z,17.373496
2022-08-12T17:32:53.159Z,17.27798
2022-08-12T17:37:55.107Z,17.032072
2022-08-12T17:42:56.698Z,16.554518
2022-08-12T17:48:05.501Z,16.231454
2022-08-12T17:53:07.894Z,16.798404
2022-08-12T17:58:12.983Z,16.587438
2022-08-12T18:04:05.538Z,16.406312
2022-08-12T18:09:24.371Z,16.017476
2022-08-12T18:14:28.122Z,15.966102
2022-08-12T18:20:04.049Z,14.909346
2022-08-12T18:25:18.643Z,15.550006
2022-08-12T18:31:17.670Z,15.772614
2022-08-12T18:36:22.630Z,15.356612
2022-08-12T18:41:24.991Z,14.975104
2022-08-12T18:46:29.941Z,14.996124
2022-08-12T18:51:34.110Z,14.939892
2022-08-12T18:56:47.470Z,14.819584
2022-08-12T19:02:21.700Z,14.386634
2022-08-12T19:07:24.753Z,15.004686
2022-08-12T19:12:30.265Z,15.115984
2022-08-12T19:17:56.908Z,15.009192
2022-08-12T19:23:08.082Z,14.464306
2022-08-12T19:28:18.181Z,14.649938
2022-08-12T19:33:30.830Z,14.642258
2022-08-12T19:38:35.221Z,14.556376
2022-08-12T19:43:59.240Z,14.750556
2022-08-12T19:49:17.952Z,14.650372
2022-08-12T19:54:27.145Z,14.36704
2022-08-12T19:59:43.420Z,14.746146
2022-08-12T20:06:04.470Z,14.160932
2022-08-12T20:12:14.442Z,14.124294
2022-08-12T20:17:23.465Z,14.102936
2022-08-12T20:22:31.567Z,14.131798
2022-08-12T20:28:04.885Z,14.032944
2022-08-12T20:33:07.943Z,13.39945
2022-08-12T20:38:26.725Z,13.73337
2022-08-12T20:43:32.004Z,13.06298
2022-08-12T20:48:33.807Z,13.459034
2022-08-12T20:53:53.967Z,13.459468
2022-08-12T20:59:00.551Z,13.078598
2022-08-12T21:04:02.446Z,13.54801
2022-08-12T21:09:05.068Z,12.879384
2022-08-12T21:14:10.522Z,12.740364
2022-08-12T21:19:22.268Z,13.04329
2022-08-12T21:24:32.482Z,12.609296
2022-08-12T21:29:40.128Z,12.10132
2022-08-12T21:34:56.480Z,12.925562
2022-08-12T21:39:58.926Z,12.602946
2022-08-12T21:45:47.989Z,11.95861
2022-08-12T21:51:02.363Z,11.409872
2022-08-12T21:56:03.853Z,10.919278
2022-08-12T22:01:10.349Z,11.430444
2022-08-12T22:06:31.351Z,11.511806
2022-08-12T22:11:56.915Z,11.424094
2022-08-12T22:17:01.554Z,11.172704
2022-08-12T22:22:06.740Z,11.191416
2022-08-12T22:27:31.861Z,11.279062
2022-08-12T22:32:34.782Z,10.64284
2022-08-12T22:37:39.018Z,10.902006
2022-08-12T22:42:40.591Z,10.703754
2022-08-12T22:47:54.040Z,10.60931
2022-08-12T22:52:57.721Z,10.85937
2022-08-12T22:58:01.724Z,9.997746
2022-08-12T23:03:03.797Z,9.846702
2022-08-12T23:08:05.631Z,10.464226
2022-08-12T23:13:07.181Z,9.904022
2022-08-12T23:18:09.893Z,10.039786
2022-08-12T23:23:12.309Z,10.129534
2022-08-12T23:28:29.482Z,10.112924
2022-08-12T23:34:01.431Z,10.16457
2022-08-12T23:39:04.473Z,10.202076
2022-08-12T23:44:07.206Z,10.335356
2022-08-12T23:49:26.803Z,10.141286
2022-08-12T23:55:04.734Z,9.919912
